Time;durP1;ratioP1;P1;durP2;ratioP2;P2;SDS_P1;SDS_P2;PMS_P1;PMS_P2;Temp;Humidity;BMP_temperature;BMP_pressure;BME280_temperature;BME280_humidity;BME280_pressure;Samples;Min_cycle;Max_cycle;Signal;HPM_P1;HPM_P2
2021/06/19 00:00:58;;;;;;;7.13;6.43;;;21.10;99.90;;;;;;489775;242;28688;-68
2021/06/19 00:02:59;;;;;;;7.83;6.50;;;21.10;99.90;;;;;;487796;234;29343;-68
2021/06/19 00:05:00;;;;;;;8.23;6.40;;;20.90;99.90;;;;;;474259;249;29269;-68
2021/06/19 00:07:01;;;;;;;11.23;6.70;;;21.00;99.90;;;;;;476197;248;29309;-68
2021/06/19 00:09:02;;;;;;;7.50;6.20;;;21.00;99.90;;;;;;476131;250;28972;-69
2021/06/19 00:11:04;;;;;;;7.00;6.30;;;20.90;99.90;;;;;;460892;258;28859;-70
2021/06/19 00:13:05;;;;;;;11.73;6.97;;;20.90;99.90;;;;;;468712;242;28862;-69
2021/06/19 00:15:06;;;;;;;10.20;6.80;;;20.80;99.90;;;;;;473600;250;28867;-69
2021/06/19 00:17:07;;;;;;;7.30;5.87;;;20.80;99.90;;;;;;481139;246;28783;-68
2021/06/19 00:19:09;;;;;;;13.57;6.83;;;20.80;99.90;;;;;;481855;246;28813;-68
2021/06/19 00:21:12;;;;;;;8.80;6.60;;;20.60;99.90;;;;;;481817;246;28849;-68
2021/06/19 00:23:12;;;;;;;7.80;7.00;;;20.50;99.90;;;;;;479818;242;28918;-69
2021/06/19 00:25:13;;;;;;;7.10;6.40;;;20.50;99.90;;;;;;491988;240;28771;-68
2021/06/19 00:27:14;;;;;;;10.97;7.07;;;20.50;99.90;;;;;;492720;241;30088;-68
2021/06/19 00:29:15;;;;;;;9.43;7.10;;;20.50;99.90;;;;;;492719;241;29246;-68
2021/06/19 00:31:19;;;;;;;7.90;6.33;;;20.60;99.90;;;;;;492749;241;28781;-68
2021/06/19 00:33:20;;;;;;;6.73;6.13;;;20.70;99.90;;;;;;474234;241;28886;-69
2021/06/19 00:35:22;;;;;;;9.30;6.80;;;20.70;99.90;;;;;;466782;254;28893;-69
2021/06/19 00:37:23;;;;;;;13.33;6.80;;;20.70;99.90;;;;;;466775;255;28804;-69
2021/06/19 00:39:24;;;;;;;7.50;6.60;;;20.70;99.90;;;;;;466812;255;28784;-70
2021/06/19 00:41:26;;;;;;;7.77;6.53;;;20.70;99.90;;;;;;466836;255;28853;-70
2021/06/19 00:43:27;;;;;;;7.80;6.17;;;20.70;99.90;;;;;;466850;255;29254;-70
2021/06/19 00:45:28;;;;;;;8.10;6.40;;;20.80;99.90;;;;;;466840;255;29388;-70
2021/06/19 00:47:29;;;;;;;9.40;6.40;;;20.80;99.90;;;;;;466790;255;29284;-70
2021/06/19 00:49:30;;;;;;;9.03;7.10;;;20.70;99.90;;;;;;466826;255;29205;-70
2021/06/19 00:51:32;;;;;;;17.10;6.80;;;20.70;99.90;;;;;;466799;255;28808;-70
2021/06/19 00:53:34;;;;;;;8.90;6.90;;;20.70;99.90;;;;;;466746;255;28810;-70
2021/06/19 00:55:34;;;;;;;13.53;6.53;;;20.70;99.90;;;;;;466826;255;28759;-69
2021/06/19 00:57:35;;;;;;;8.47;6.80;;;20.70;99.90;;;;;;466817;255;28795;-70
2021/06/19 00:59:37;;;;;;;7.60;6.47;;;20.60;99.90;;;;;;466787;255;28887;-70
2021/06/19 01:01:38;;;;;;;10.10;6.40;;;20.50;99.90;;;;;;466758;255;28785;-69
2021/06/19 01:03:39;;;;;;;9.10;6.60;;;20.50;99.90;;;;;;466856;255;28877;-69
2021/06/19 01:05:40;;;;;;;11.90;7.17;;;20.40;99.90;;;;;;466855;255;29221;-69
2021/06/19 01:07:42;;;;;;;7.83;6.10;;;20.40;99.90;;;;;;466825;254;30042;-69
2021/06/19 01:09:43;;;;;;;7.60;6.80;;;20.40;99.90;;;;;;466855;255;29901;-69
2021/06/19 01:11:45;;;;;;;9.80;6.87;;;20.40;99.90;;;;;;466812;255;28784;-69
2021/06/19 01:13:45;;;;;;;10.47;7.33;;;20.50;99.90;;;;;;466802;255;28907;-70
2021/06/19 01:15:47;;;;;;;9.47;6.80;;;20.50;99.90;;;;;;466829;254;28759;-69
2021/06/19 01:17:48;;;;;;;7.57;6.87;;;20.50;99.90;;;;;;466784;255;28789;-69
2021/06/19 01:19:49;;;;;;;8.27;6.50;;;20.50;99.90;;;;;;466808;254;28751;-69
2021/06/19 01:21:50;;;;;;;9.00;7.33;;;20.60;99.90;;;;;;466829;255;28841;-70
2021/06/19 01:23:52;;;;;;;8.00;7.17;;;20.50;99.90;;;;;;466852;252;28816;-70
2021/06/19 01:25:53;;;;;;;11.60;7.07;;;20.50;99.90;;;;;;466809;255;28852;-69
2021/06/19 01:27:54;;;;;;;9.33;6.77;;;20.50;99.90;;;;;;466799;255;29377;-70
2021/06/19 01:29:55;;;;;;;8.53;6.83;;;20.50;99.90;;;;;;466790;255;30021;-69
2021/06/19 01:31:57;;;;;;;10.80;6.57;;;20.40;99.90;;;;;;466805;255;29272;-70
2021/06/19 01:33:58;;;;;;;8.60;6.97;;;20.40;99.90;;;;;;467160;252;30070;-69
2021/06/19 01:35:59;;;;;;;7.53;5.87;;;20.40;99.90;;;;;;472355;252;28894;-69
2021/06/19 01:38:00;;;;;;;10.17;6.73;;;20.50;99.90;;;;;;472352;252;28917;-69
2021/06/19 01:40:02;;;;;;;7.80;6.33;;;20.40;99.90;;;;;;472347;252;29004;-70
2021/06/19 01:42:03;;;;;;;9.60;6.63;;;20.40;99.90;;;;;;472294;252;28951;-70
2021/06/19 01:44:04;;;;;;;7.80;6.40;;;20.40;99.90;;;;;;472363;252;28920;-70
2021/06/19 01:46:05;;;;;;;7.20;6.50;;;20.40;99.90;;;;;;472363;252;28890;-69
2021/06/19 01:48:07;;;;;;;12.73;6.77;;;20.40;99.90;;;;;;472383;252;28916;-70
2021/06/19 01:50:08;;;;;;;7.90;6.70;;;20.30;99.90;;;;;;472361;250;29386;-70
2021/06/19 01:52:09;;;;;;;11.10;6.77;;;20.20;99.90;;;;;;472358;252;29440;-69
2021/06/19 01:54:10;;;;;;;7.40;6.70;;;20.20;99.90;;;;;;472359;252;29483;-69
2021/06/19 01:56:12;;;;;;;7.80;6.60;;;20.20;99.90;;;;;;472331;252;29483;-69
2021/06/19 01:58:13;;;;;;;9.87;7.50;;;20.10;99.90;;;;;;472355;252;28915;-69
2021/06/19 02:00:14;;;;;;;12.73;6.70;;;20.10;99.90;;;;;;472352;252;28988;-69
2021/06/19 02:02:15;;;;;;;8.63;7.40;;;20.10;99.90;;;;;;472387;252;28874;-69
2021/06/19 02:04:17;;;;;;;8.03;7.23;;;20.10;99.90;;;;;;472371;252;28943;-70
2021/06/19 02:06:18;;;;;;;12.20;6.97;;;20.10;99.90;;;;;;472357;252;29395;-69
2021/06/19 02:08:19;;;;;;;10.37;7.27;;;20.10;99.90;;;;;;472336;252;29080;-70
2021/06/19 02:10:21;;;;;;;9.07;6.90;;;20.10;99.90;;;;;;472377;252;29035;-70
2021/06/19 02:12:22;;;;;;;7.23;6.50;;;20.10;99.90;;;;;;472334;252;29412;-69
2021/06/19 02:14:23;;;;;;;10.80;7.50;;;20.10;99.90;;;;;;472343;252;29471;-70
2021/06/19 02:16:24;;;;;;;9.37;7.33;;;20.10;99.90;;;;;;472372;252;29347;-69
2021/06/19 02:18:26;;;;;;;7.80;7.10;;;20.00;99.90;;;;;;472372;252;28917;-70
2021/06/19 02:20:27;;;;;;;7.77;6.87;;;19.90;99.90;;;;;;472346;252;29068;-71
2021/06/19 02:22:28;;;;;;;9.00;7.03;;;19.90;99.90;;;;;;472360;252;28876;-70
2021/06/19 02:24:29;;;;;;;7.50;6.30;;;19.90;99.90;;;;;;472359;251;28988;-69
2021/06/19 02:26:31;;;;;;;10.10;7.40;;;19.90;99.90;;;;;;472364;252;28953;-69
2021/06/19 02:28:32;;;;;;;8.90;7.00;;;20.00;99.90;;;;;;472320;252;28943;-69
2021/06/19 02:30:33;;;;;;;12.10;7.87;;;20.00;99.90;;;;;;472383;252;29002;-69
2021/06/19 02:32:34;;;;;;;7.87;6.83;;;19.90;99.90;;;;;;472366;252;28856;-69
2021/06/19 02:34:36;;;;;;;7.77;7.00;;;19.90;99.90;;;;;;472365;252;29471;-70
2021/06/19 02:36:37;;;;;;;9.53;7.73;;;19.80;99.90;;;;;;467434;250;30101;-69
2021/06/19 02:38:38;;;;;;;9.67;7.83;;;19.70;99.90;;;;;;466811;255;29236;-70
2021/06/19 02:40:39;;;;;;;10.30;7.27;;;19.70;99.90;;;;;;466809;255;29353;-69
2021/06/19 02:42:41;;;;;;;8.10;7.30;;;19.70;99.90;;;;;;466858;255;28824;-69
2021/06/19 02:44:42;;;;;;;8.67;6.67;;;19.70;99.90;;;;;;466815;255;28800;-69
2021/06/19 02:46:43;;;;;;;10.03;6.37;;;19.70;99.90;;;;;;466808;255;28856;-69
2021/06/19 02:48:44;;;;;;;10.30;7.33;;;19.70;99.90;;;;;;466837;255;28841;-68
2021/06/19 02:50:46;;;;;;;10.53;8.10;;;19.60;99.90;;;;;;466818;255;28825;-69
2021/06/19 02:52:47;;;;;;;10.17;7.47;;;19.60;99.90;;;;;;466797;255;28783;-69
2021/06/19 02:54:48;;;;;;;7.80;7.00;;;19.50;99.90;;;;;;466786;255;28800;-70
2021/06/19 02:56:49;;;;;;;8.60;7.63;;;19.30;99.90;;;;;;466880;251;29443;-69
2021/06/19 02:58:51;;;;;;;8.40;7.20;;;19.30;99.90;;;;;;466757;254;29320;-69
2021/06/19 03:00:53;;;;;;;12.10;7.13;;;19.30;99.90;;;;;;466805;255;29372;-70
2021/06/19 03:02:53;;;;;;;7.70;6.93;;;19.40;99.90;;;;;;466802;255;28767;-68
2021/06/19 03:04:54;;;;;;;11.30;8.37;;;19.30;99.90;;;;;;466802;255;28787;-69
2021/06/19 03:06:56;;;;;;;12.43;8.47;;;19.40;99.90;;;;;;466810;255;28762;-69
2021/06/19 03:08:57;;;;;;;7.63;6.90;;;19.30;99.90;;;;;;466818;255;28771;-69
2021/06/19 03:10:58;;;;;;;8.40;7.53;;;19.30;99.90;;;;;;466865;255;28826;-70
2021/06/19 03:12:59;;;;;;;11.53;8.00;;;19.30;99.90;;;;;;466820;254;28857;-70
2021/06/19 03:15:01;;;;;;;11.03;8.70;;;19.40;99.90;;;;;;466831;255;28837;-68
2021/06/19 03:17:02;;;;;;;9.40;7.37;;;19.30;99.90;;;;;;466837;255;29254;-68
2021/06/19 03:19:05;;;;;;;8.20;7.33;;;19.30;99.90;;;;;;466797;254;29299;-69
2021/06/19 03:21:04;;;;;;;10.37;7.60;;;19.30;99.90;;;;;;466745;254;29418;-69
2021/06/19 03:23:06;;;;;;;12.80;8.13;;;19.30;99.90;;;;;;466812;255;28852;-70
2021/06/19 03:25:07;;;;;;;7.87;7.17;;;19.40;99.90;;;;;;466804;255;28806;-70
2021/06/19 03:27:08;;;;;;;8.73;7.40;;;19.40;99.90;;;;;;466791;255;28773;-68
2021/06/19 03:29:09;;;;;;;15.07;7.00;;;19.40;99.90;;;;;;466785;255;28887;-69
2021/06/19 03:31:11;;;;;;;17.10;7.10;;;19.30;99.90;;;;;;466856;255;28804;-70
2021/06/19 03:33:12;;;;;;;10.07;6.90;;;19.30;99.90;;;;;;466803;255;28871;-69
2021/06/19 03:35:13;;;;;;;8.93;7.10;;;19.40;99.90;;;;;;466801;255;28896;-71
2021/06/19 03:37:14;;;;;;;7.10;6.40;;;19.40;99.90;;;;;;471187;252;28889;-70
2021/06/19 03:39:16;;;;;;;7.50;6.80;;;19.40;99.90;;;;;;469772;250;29312;-70
2021/06/19 03:41:17;;;;;;;8.33;6.93;;;19.40;99.90;;;;;;471367;252;29422;-69
2021/06/19 03:43:18;;;;;;;9.87;7.70;;;19.40;99.90;;;;;;463009;256;29319;-69
2021/06/19 03:45:19;;;;;;;15.30;7.47;;;19.50;99.90;;;;;;464519;255;28955;-69
2021/06/19 03:47:21;;;;;;;9.43;7.10;;;19.50;99.90;;;;;;463030;256;28967;-69
2021/06/19 03:49:22;;;;;;;7.53;6.80;;;19.50;99.90;;;;;;464510;255;28927;-69
2021/06/19 03:51:23;;;;;;;11.47;7.13;;;19.50;99.90;;;;;;463028;256;28915;-71
2021/06/19 03:53:24;;;;;;;9.30;6.50;;;19.50;99.90;;;;;;464505;252;28831;-68
2021/06/19 03:55:26;;;;;;;12.27;6.67;;;19.50;99.90;;;;;;463032;256;28908;-70
2021/06/19 03:57:27;;;;;;;12.10;7.13;;;19.50;99.90;;;;;;464525;255;28928;-70
2021/06/19 03:59:28;;;;;;;9.00;7.03;;;19.60;99.90;;;;;;462986;256;29459;-70
2021/06/19 04:01:29;;;;;;;8.97;6.50;;;19.60;99.90;;;;;;464572;255;29437;-71
2021/06/19 04:03:31;;;;;;;7.70;6.53;;;19.60;99.90;;;;;;462992;256;30606;-70
2021/06/19 04:05:32;;;;;;;7.23;6.57;;;19.60;99.90;;;;;;464561;253;29438;-68
2021/06/19 04:07:33;;;;;;;9.37;7.07;;;19.60;99.90;;;;;;463030;255;28878;-68
2021/06/19 04:09:34;;;;;;;10.67;6.63;;;19.60;99.90;;;;;;464527;255;28812;-68
2021/06/19 04:11:36;;;;;;;10.63;6.63;;;19.60;99.90;;;;;;463026;256;28917;-68
2021/06/19 04:13:37;;;;;;;7.27;6.20;;;19.60;99.90;;;;;;464498;255;28830;-68
2021/06/19 04:15:38;;;;;;;7.50;6.10;;;19.60;99.90;;;;;;463013;257;29049;-68
2021/06/19 04:17:39;;;;;;;9.73;6.67;;;19.50;99.90;;;;;;464521;255;28828;-68
2021/06/19 04:19:41;;;;;;;11.23;6.50;;;19.50;99.90;;;;;;462996;256;28936;-68
2021/06/19 04:21:42;;;;;;;8.10;6.90;;;19.50;99.90;;;;;;464532;255;29351;-71
2021/06/19 04:23:43;;;;;;;10.73;7.90;;;19.50;99.90;;;;;;462912;257;29321;-70
2021/06/19 04:25:44;;;;;;;7.37;6.70;;;19.40;99.90;;;;;;464568;255;29352;-70
2021/06/19 04:27:46;;;;;;;13.40;7.00;;;19.50;99.90;;;;;;463001;256;28913;-69
2021/06/19 04:29:47;;;;;;;7.50;6.47;;;19.60;99.90;;;;;;464506;255;28866;-70
2021/06/19 04:31:48;;;;;;;6.97;6.20;;;19.60;99.90;;;;;;463024;256;29001;-70
2021/06/19 04:33:49;;;;;;;9.30;6.47;;;19.70;99.90;;;;;;464501;255;28910;-70
2021/06/19 04:35:51;;;;;;;9.90;5.93;;;19.70;99.90;;;;;;463027;256;28903;-70
2021/06/19 04:37:52;;;;;;;7.13;6.47;;;19.70;99.90;;;;;;461485;253;28970;-69
2021/06/19 04:39:59;;;;;;;7.83;6.60;;;19.60;99.90;;;;;;476979;249;28786;-69
2021/06/19 04:42:06;;;;;;;6.93;6.13;;;19.50;99.90;;;;;;477938;248;28835;-71
2021/06/19 04:46:00;;;;;;;8.43;6.47;;;19.50;99.90;;;;;;478247;247;29304;-70
2021/06/19 04:48:01;;;;;;;7.43;6.70;;;19.50;99.90;;;;;;478220;247;29280;-70
2021/06/19 04:50:02;;;;;;;9.30;6.60;;;19.50;99.90;;;;;;478250;248;28780;-70
2021/06/19 04:52:03;;;;;;;9.20;6.80;;;19.40;99.90;;;;;;478096;247;28854;-70
2021/06/19 04:54:05;;;;;;;9.13;7.20;;;19.40;99.90;;;;;;462265;256;28903;-69
2021/06/19 04:56:06;;;;;;;7.97;5.97;;;19.60;99.90;;;;;;469095;253;28865;-70
2021/06/19 04:58:08;;;;;;;8.53;7.60;;;19.60;99.90;;;;;;460126;258;29008;-69
2021/06/19 05:00:08;;;;;;;8.40;7.00;;;19.70;99.90;;;;;;472263;252;28796;-69
2021/06/19 05:02:10;;;;;;;7.80;5.90;;;19.80;99.90;;;;;;467675;253;28967;-71
2021/06/19 05:04:11;;;;;;;6.57;5.97;;;19.90;99.90;;;;;;461609;252;29011;-70
2021/06/19 05:06:12;;;;;;;5.73;5.23;;;20.00;99.90;;;;;;475701;249;29487;-69
2021/06/19 05:08:14;;;;;;;6.57;5.83;;;20.10;99.90;;;;;;486487;244;30002;-69
2021/06/19 05:10:15;;;;;;;7.47;5.70;;;20.10;99.90;;;;;;486535;243;29962;-69
2021/06/19 05:12:16;;;;;;;6.80;5.50;;;20.20;99.90;;;;;;486565;243;29220;-70
2021/06/19 05:14:17;;;;;;;6.77;5.57;;;20.20;99.90;;;;;;486567;243;28908;-70
2021/06/19 05:16:18;;;;;;;4.87;4.47;;;20.30;99.90;;;;;;486574;243;28796;-70
2021/06/19 05:18:20;;;;;;;6.43;4.63;;;20.30;99.90;;;;;;486580;243;28783;-70
2021/06/19 05:20:21;;;;;;;9.03;4.80;;;20.40;99.90;;;;;;486576;243;28769;-69
2021/06/19 05:22:22;;;;;;;5.80;5.20;;;20.50;99.90;;;;;;486581;243;28840;-69
2021/06/19 05:24:24;;;;;;;7.30;5.03;;;20.50;99.90;;;;;;486532;243;28830;-69
2021/06/19 05:26:25;;;;;;;6.07;4.30;;;20.50;99.90;;;;;;486597;243;28820;-70
2021/06/19 05:28:26;;;;;;;6.43;4.83;;;20.60;99.90;;;;;;486581;243;28935;-69
2021/06/19 05:30:27;;;;;;;6.67;4.50;;;20.60;99.90;;;;;;486570;243;29272;-69
2021/06/19 05:32:28;;;;;;;4.67;3.83;;;20.70;99.90;;;;;;486532;243;29391;-70
2021/06/19 05:34:30;;;;;;;4.80;3.90;;;20.70;99.90;;;;;;486543;243;29175;-70
2021/06/19 05:36:31;;;;;;;6.20;3.87;;;20.70;99.90;;;;;;486560;243;29262;-70
2021/06/19 05:38:32;;;;;;;3.87;3.53;;;20.80;99.90;;;;;;486545;243;28763;-70
2021/06/19 05:40:33;;;;;;;6.07;4.00;;;20.80;99.90;;;;;;486535;244;28808;-69
2021/06/19 05:42:35;;;;;;;6.10;3.93;;;20.80;99.90;;;;;;486575;243;28719;-70
2021/06/19 05:44:36;;;;;;;5.17;3.40;;;20.90;99.90;;;;;;486549;243;28751;-69
2021/06/19 05:46:37;;;;;;;3.73;3.07;;;20.90;99.90;;;;;;486574;243;28740;-70
2021/06/19 05:48:39;;;;;;;5.90;3.87;;;21.00;99.90;;;;;;486571;243;28850;-71
2021/06/19 05:50:40;;;;;;;6.63;3.20;;;21.00;99.90;;;;;;486574;243;28909;-70
2021/06/19 05:52:41;;;;;;;7.33;3.63;;;21.00;99.90;;;;;;486559;243;28922;-71
2021/06/19 05:54:42;;;;;;;6.03;3.90;;;21.10;99.90;;;;;;486563;243;28760;-68
2021/06/19 05:56:43;;;;;;;7.53;3.20;;;21.10;99.90;;;;;;486571;243;29266;-68
2021/06/19 05:58:45;;;;;;;4.30;3.90;;;21.10;99.90;;;;;;486555;243;29334;-70
2021/06/19 06:00:46;;;;;;;7.20;3.33;;;21.20;99.90;;;;;;486517;243;29251;-71
2021/06/19 06:02:47;;;;;;;7.87;3.13;;;21.20;99.90;;;;;;486553;243;28848;-72
2021/06/19 06:04:49;;;;;;;3.47;3.17;;;21.20;99.90;;;;;;486558;244;28839;-70
2021/06/19 06:06:50;;;;;;;3.73;3.43;;;21.30;99.90;;;;;;486579;243;28923;-69
2021/06/19 06:08:51;;;;;;;4.07;3.03;;;21.30;99.90;;;;;;486567;243;28752;-70
2021/06/19 06:10:53;;;;;;;8.00;3.30;;;21.30;99.90;;;;;;486560;243;28851;-69
2021/06/19 06:12:54;;;;;;;3.30;3.00;;;21.30;99.90;;;;;;486524;244;28847;-69
2021/06/19 06:14:55;;;;;;;7.13;3.60;;;21.30;99.90;;;;;;486540;243;28798;-70
2021/06/19 06:16:56;;;;;;;3.27;2.97;;;21.40;99.90;;;;;;486575;243;28736;-70
2021/06/19 06:18:57;;;;;;;3.43;3.13;;;21.40;99.90;;;;;;486569;243;28787;-70
2021/06/19 06:20:58;;;;;;;7.00;3.60;;;21.50;99.90;;;;;;486552;244;29253;-72
2021/06/19 06:23:00;;;;;;;5.10;2.80;;;21.50;99.90;;;;;;486635;237;29307;-72
2021/06/19 06:25:01;;;;;;;3.30;3.00;;;21.60;99.90;;;;;;477432;241;29272;-70
2021/06/19 06:27:02;;;;;;;3.20;2.90;;;21.60;99.90;;;;;;481946;246;28905;-70
2021/06/19 06:29:03;;;;;;;4.50;2.93;;;21.70;99.90;;;;;;480793;245;28951;-70
2021/06/19 06:31:05;;;;;;;4.60;3.00;;;21.70;99.90;;;;;;480458;247;28884;-71
2021/06/19 06:33:06;;;;;;;5.10;3.13;;;21.80;99.90;;;;;;480623;245;28912;-71
2021/06/19 06:35:09;;;;;;;3.43;2.80;;;21.80;99.90;;;;;;480975;245;28869;-72
2021/06/19 06:37:09;;;;;;;3.93;3.10;;;21.80;99.90;;;;;;480910;246;28871;-71
2021/06/19 06:39:10;;;;;;;3.07;2.83;;;21.80;99.90;;;;;;481015;245;28864;-72
2021/06/19 06:41:11;;;;;;;3.53;2.90;;;21.90;99.90;;;;;;480986;245;28832;-70
2021/06/19 06:43:12;;;;;;;4.00;3.10;;;21.90;99.90;;;;;;480961;245;28887;-71
2021/06/19 06:45:14;;;;;;;4.90;3.10;;;21.90;99.90;;;;;;481025;245;29356;-71
2021/06/19 06:47:15;;;;;;;3.43;2.90;;;22.00;99.90;;;;;;481016;245;29339;-72
2021/06/19 06:49:17;;;;;;;3.50;3.20;;;22.00;99.90;;;;;;481030;245;29351;-71
2021/06/19 06:51:17;;;;;;;5.70;3.20;;;22.00;99.90;;;;;;481008;245;28848;-71
2021/06/19 06:53:19;;;;;;;3.10;2.83;;;22.10;99.90;;;;;;481012;245;28958;-70
2021/06/19 06:55:20;;;;;;;2.70;2.47;;;22.10;99.90;;;;;;481013;245;28942;-71
2021/06/19 06:57:21;;;;;;;4.83;2.70;;;22.10;99.90;;;;;;481010;245;28851;-71
2021/06/19 06:59:22;;;;;;;4.80;2.90;;;22.20;99.90;;;;;;481009;245;29293;-72
2021/06/19 07:01:24;;;;;;;3.27;2.60;;;22.20;99.90;;;;;;481022;245;28961;-71
2021/06/19 07:03:25;;;;;;;2.80;2.60;;;22.20;99.90;;;;;;481024;245;28962;-71
2021/06/19 07:05:26;;;;;;;4.83;3.00;;;22.30;99.90;;;;;;481043;245;28840;-71
2021/06/19 07:07:27;;;;;;;4.30;3.10;;;22.30;99.90;;;;;;481013;245;28867;-72
2021/06/19 07:09:29;;;;;;;3.20;2.63;;;22.40;99.90;;;;;;481068;245;29411;-72
2021/06/19 07:11:30;;;;;;;3.33;2.87;;;22.40;99.90;;;;;;481019;245;29289;-71
2021/06/19 07:13:31;;;;;;;5.73;2.50;;;22.50;99.90;;;;;;480319;246;29549;-72
2021/06/19 07:15:32;;;;;;;3.50;2.63;;;22.50;99.90;;;;;;481007;245;29709;-71
2021/06/19 07:17:34;;;;;;;2.63;2.43;;;22.60;99.90;;;;;;481004;245;28856;-71
2021/06/19 07:19:35;;;;;;;3.60;2.77;;;22.60;99.90;;;;;;481010;245;28966;-72
2021/06/19 07:21:36;;;;;;;6.33;2.53;;;22.60;99.90;;;;;;480981;245;28933;-71
2021/06/19 07:23:37;;;;;;;3.37;2.90;;;22.60;99.90;;;;;;480980;245;28887;-72
2021/06/19 07:25:39;;;;;;;4.73;3.20;;;22.70;99.90;;;;;;481028;245;28864;-71
2021/06/19 07:27:40;;;;;;;7.93;2.80;;;22.70;99.90;;;;;;481012;245;28868;-71
2021/06/19 07:29:41;;;;;;;5.00;2.40;;;22.80;99.90;;;;;;481002;245;28978;-72
2021/06/19 07:31:42;;;;;;;3.47;2.73;;;22.90;99.90;;;;;;481015;245;29236;-71
2021/06/19 07:33:44;;;;;;;3.53;2.80;;;23.00;99.90;;;;;;481009;245;29365;-72
2021/06/19 07:35:45;;;;;;;2.60;2.40;;;23.00;99.90;;;;;;481027;245;29270;-71
2021/06/19 07:37:46;;;;;;;3.63;2.70;;;23.00;99.90;;;;;;481008;245;28897;-71
2021/06/19 07:39:47;;;;;;;4.47;2.83;;;23.00;99.90;;;;;;481088;245;29555;-72
2021/06/19 07:41:49;;;;;;;2.90;2.60;;;23.00;99.90;;;;;;481049;245;28841;-71
2021/06/19 07:43:50;;;;;;;2.97;2.67;;;23.10;99.90;;;;;;478205;237;28970;-72
2021/06/19 07:45:51;;;;;;;2.40;2.30;;;23.20;99.90;;;;;;481201;243;28703;-72
2021/06/19 07:47:52;;;;;;;2.90;2.60;;;23.10;99.90;;;;;;497673;238;28798;-72
2021/06/19 07:49:54;;;;;;;3.27;2.37;;;23.20;99.90;;;;;;481220;246;29096;-72
2021/06/19 07:51:55;;;;;;;4.03;2.60;;;23.20;99.90;;;;;;500376;236;28766;-71
2021/06/19 07:53:56;;;;;;;3.20;2.90;;;23.20;99.90;;;;;;503496;236;28795;-72
2021/06/19 07:55:57;;;;;;;5.30;2.67;;;23.20;99.90;;;;;;503515;236;28751;-71
2021/06/19 07:57:59;;;;;;;3.20;2.90;;;23.20;99.90;;;;;;503510;236;28795;-70
2021/06/19 08:00:00;;;;;;;2.83;2.63;;;23.40;99.90;;;;;;503489;236;29480;-72
2021/06/19 08:02:01;;;;;;;3.30;3.00;;;23.40;99.90;;;;;;503542;236;29213;-72
2021/06/19 08:04:02;;;;;;;3.80;2.80;;;23.50;99.90;;;;;;503487;236;29290;-72
2021/06/19 08:06:04;;;;;;;4.50;2.70;;;23.50;99.90;;;;;;503501;236;28775;-72
2021/06/19 08:08:05;;;;;;;4.40;2.70;;;23.50;99.90;;;;;;503492;236;28803;-72
2021/06/19 08:10:06;;;;;;;2.83;2.60;;;23.50;99.90;;;;;;503512;236;28857;-72
2021/06/19 08:12:07;;;;;;;7.50;3.20;;;23.50;99.90;;;;;;503538;236;28783;-72
2021/06/19 08:14:09;;;;;;;2.97;2.70;;;23.60;99.90;;;;;;503449;236;28814;-72
2021/06/19 08:16:11;;;;;;;6.83;2.50;;;23.60;99.90;;;;;;503531;236;28917;-71
2021/06/19 08:18:11;;;;;;;4.60;2.43;;;23.70;99.90;;;;;;503416;236;28814;-72
2021/06/19 08:20:12;;;;;;;3.07;2.37;;;23.80;99.90;;;;;;503515;236;28806;-71
2021/06/19 08:22:14;;;;;;;3.60;2.30;;;23.80;99.90;;;;;;503496;236;29321;-71
2021/06/19 08:24:15;;;;;;;2.90;2.60;;;23.90;99.90;;;;;;503088;236;29413;-73
2021/06/19 08:26:16;;;;;;;3.43;2.60;;;23.90;99.90;;;;;;503389;236;29388;-71
2021/06/19 08:28:17;;;;;;;3.90;2.73;;;24.10;99.90;;;;;;503524;236;29317;-72
2021/06/19 08:30:19;;;;;;;3.07;2.80;;;24.10;99.90;;;;;;503521;236;28789;-71
2021/06/19 08:32:20;;;;;;;3.30;2.57;;;24.10;99.90;;;;;;503486;236;28906;-71
2021/06/19 08:34:21;;;;;;;2.87;2.47;;;24.10;99.90;;;;;;503525;236;28797;-73
2021/06/19 08:36:22;;;;;;;4.80;2.47;;;24.20;99.90;;;;;;503504;236;28839;-72
2021/06/19 08:38:24;;;;;;;4.03;2.60;;;24.20;99.90;;;;;;503532;236;28883;-71
2021/06/19 08:40:25;;;;;;;4.60;3.13;;;24.10;99.90;;;;;;503510;236;28773;-71
2021/06/19 08:42:26;;;;;;;4.70;2.73;;;24.20;99.90;;;;;;503507;236;28768;-72
2021/06/19 08:44:27;;;;;;;2.83;2.63;;;24.30;99.90;;;;;;503543;236;28815;-72
2021/06/19 08:46:29;;;;;;;6.00;2.80;;;24.40;99.90;;;;;;503555;236;28762;-71
2021/06/19 08:48:30;;;;;;;4.63;2.73;;;24.30;99.90;;;;;;503508;236;29297;-72
2021/06/19 08:50:31;;;;;;;4.60;2.73;;;24.40;99.90;;;;;;503534;236;29241;-72
2021/06/19 08:52:32;;;;;;;3.87;2.77;;;24.50;99.90;;;;;;503510;236;29270;-71
2021/06/19 08:54:39;;;;;;;4.70;3.10;;;24.50;99.90;;;;;;503511;236;28825;-72
2021/06/19 08:56:41;;;;;;;4.13;3.53;;;24.50;99.90;;;;;;503466;236;29300;-71
2021/06/19 08:58:42;;;;;;;3.73;2.50;;;24.50;99.90;;;;;;503528;236;29343;-72
2021/06/19 09:00:43;;;;;;;3.20;2.80;;;24.50;99.90;;;;;;503492;236;28751;-71
2021/06/19 09:02:46;;;;;;;3.33;2.67;;;24.50;99.90;;;;;;503507;236;28791;-72
2021/06/19 09:04:46;;;;;;;3.30;3.00;;;24.70;99.90;;;;;;503355;236;28855;-73
2021/06/19 09:06:47;;;;;;;5.37;3.60;;;24.70;99.90;;;;;;503469;236;28791;-72
2021/06/19 09:08:48;;;;;;;7.20;3.23;;;24.80;99.90;;;;;;503493;236;28901;-72
2021/06/19 09:10:51;;;;;;;7.10;3.10;;;24.80;99.90;;;;;;503522;236;28950;-73
2021/06/19 09:12:51;;;;;;;4.50;4.03;;;24.80;99.90;;;;;;503367;236;28826;-72
2021/06/19 09:14:52;;;;;;;5.90;3.00;;;24.90;99.90;;;;;;503482;236;28783;-72
2021/06/19 09:16:53;;;;;;;5.13;2.90;;;25.00;99.90;;;;;;503512;236;29334;-71
2021/06/19 09:18:54;;;;;;;3.20;3.00;;;25.00;99.90;;;;;;503536;236;29266;-73
2021/06/19 09:20:56;;;;;;;4.73;2.93;;;25.20;99.90;;;;;;503529;236;29221;-72
2021/06/19 09:22:57;;;;;;;4.40;3.40;;;25.40;99.90;;;;;;503502;236;28830;-71
2021/06/19 09:24:58;;;;;;;4.90;3.53;;;25.50;99.90;;;;;;503490;236;28771;-71
2021/06/19 09:26:59;;;;;;;8.33;3.53;;;25.40;99.90;;;;;;503516;236;28807;-72
2021/06/19 09:29:01;;;;;;;5.17;3.87;;;25.40;99.90;;;;;;503499;236;28836;-72
2021/06/19 09:31:02;;;;;;;4.13;2.97;;;25.60;99.90;;;;;;503499;236;28902;-71
2021/06/19 09:33:04;;;;;;;4.13;3.37;;;25.50;99.90;;;;;;503512;236;28903;-72
2021/06/19 09:35:04;;;;;;;5.60;3.90;;;25.60;99.90;;;;;;503417;236;28780;-73
2021/06/19 09:37:11;;;;;;;4.07;3.63;;;25.70;99.90;;;;;;503493;236;28817;-71
2021/06/19 09:39:10;;;;;;;7.80;4.10;;;26.00;99.90;;;;;;503221;236;29429;-71
2021/06/19 09:41:11;;;;;;;12.97;5.13;;;26.00;99.90;;;;;;503528;236;28919;-71
2021/06/19 09:43:12;;;;;;;11.30;4.53;;;26.10;99.90;;;;;;503501;236;28862;-71
2021/06/19 09:45:14;;;;;;;6.50;3.97;;;26.00;99.90;;;;;;503468;236;28894;-72
2021/06/19 09:47:16;;;;;;;5.17;4.37;;;25.90;99.90;;;;;;503589;236;28785;-71
2021/06/19 09:49:16;;;;;;;6.63;4.33;;;26.10;99.90;;;;;;503414;236;28794;-71
2021/06/19 09:51:17;;;;;;;11.63;5.10;;;26.20;99.90;;;;;;503525;236;28806;-72
2021/06/19 09:53:19;;;;;;;7.77;4.60;;;26.30;99.90;;;;;;503504;236;28760;-72
2021/06/19 09:55:21;;;;;;;10.87;5.40;;;26.40;99.90;;;;;;503503;236;29317;-72
2021/06/19 09:57:21;;;;;;;9.73;5.00;;;26.40;99.90;;;;;;503417;236;29232;-71
2021/06/19 09:59:22;;;;;;;7.70;4.43;;;26.40;99.90;;;;;;503452;236;29306;-70
2021/06/19 10:01:24;;;;;;;10.33;5.20;;;26.30;99.90;;;;;;503465;236;28828;-72
2021/06/19 10:03:25;;;;;;;8.20;4.90;;;26.40;99.90;;;;;;503502;236;28802;-71
2021/06/19 10:05:26;;;;;;;8.40;4.20;;;26.40;99.90;;;;;;503493;236;28896;-72
2021/06/19 10:07:27;;;;;;;9.93;5.20;;;26.50;99.90;;;;;;503496;236;28758;-72
2021/06/19 10:09:29;;;;;;;10.17;4.67;;;26.40;99.90;;;;;;503505;236;28810;-71
2021/06/19 10:11:30;;;;;;;11.47;4.50;;;26.50;99.90;;;;;;503550;236;28806;-72
2021/06/19 10:13:31;;;;;;;8.53;4.27;;;26.70;99.90;;;;;;503537;236;28883;-71
2021/06/19 10:15:33;;;;;;;6.67;4.63;;;26.90;99.90;;;;;;503522;236;28812;-70
2021/06/19 10:17:34;;;;;;;8.23;4.33;;;27.10;99.90;;;;;;503527;236;29264;-70
2021/06/19 10:19:35;;;;;;;8.60;4.07;;;27.00;99.90;;;;;;503511;236;29223;-71
2021/06/19 10:21:36;;;;;;;6.90;4.00;;;26.80;99.90;;;;;;503503;236;29367;-73
2021/06/19 10:23:37;;;;;;;7.77;4.10;;;26.80;99.90;;;;;;503489;236;28844;-70
2021/06/19 10:25:45;;;;;;;7.70;4.10;;;27.00;99.90;;;;;;503513;236;28770;-71
2021/06/19 10:27:40;;;;;;;8.73;4.10;;;27.00;99.90;;;;;;502995;236;28827;-71
2021/06/19 10:29:41;;;;;;;8.80;4.43;;;27.30;99.90;;;;;;503522;236;28770;-71
2021/06/19 10:31:42;;;;;;;12.13;4.30;;;27.60;99.90;;;;;;503497;236;28904;-72